Bedwas, United Kingdom
Current Conditions -  °F | °C
As of 2:20 PM on Wednesday 28 Jan 2015 (Local Time) from EGFF Reporting Station
Broken Clouds Broken Clouds  
Wind Chill: 33°   Ceiling: 3300
Heat Index: 43°   Visibility: 6mi
Dew Point: 32°   Wind: 24mph
Humidity: 66%   Direction: 290°WNW
Pressure: 29.68"   Gusts: NA
Location:  51.59°N, 3.2°W
Report Text: EGFF 281420Z AUTO 29021KT 9999 BKN033 BKN048 06/M00 Q1005
Loading
Personal Weather Stations






























Interactive Weather Map New forecast layout! Learn more

10-Day Weather Forecast

Advertisements
Track Severe Weather on mobile